tititudorancea.com
Station Historical Data
Daily Summary for March 25, 2018 Units:  Metric    English   Both
« Previous Day
Next Day »
Daily Weekly Monthly Yearly Custom
  High: Low: Average:
Temperature: -17.8 °C 9.4 °C 16.8 °C
Dew Point: -17.8 °C 4.1 °C 10.6 °C
Humidity: Humidity % 40 % 68 %
Wind Speed: 0 km/h 2.9 km/h 15.6 km/h
Wind Gust: 0 km/h - -
Wind:- - WNW
Pressure: 0 hPa 998.5 hPa -
Precipitation: 1.27 mm    
Historical Graphs
 
 
Ararat weather Find more about Weather in Ararat, AU


 



 


Tabular Data for March 25, 2018
Time Temperature Dew Point Pressure Wind Wind Speed Wind Gust Humidity Rainfall Rate (Hourly)
-17.8 °C -17.8 °C 0 hPa Calm     Humidity % 0 mm
00:04 18.8 °C 16.4 °C 1002.6 hPa NNE 6.4 km/h 9.3 km/h 86 % 0 mm
00:09 18.8 °C 16.4 °C 1002.6 hPa NNE 5.8 km/h 7.4 km/h 86 % 0 mm
00:14 18.8 °C 16.3 °C 1002.3 hPa NNE 6 km/h 7.4 km/h 85 % 0 mm
00:19 18.8 °C 16.3 °C 1002.3 hPa NNE 5.3 km/h 7.4 km/h 85 % 0 mm
00:24 18.9 °C 16.3 °C 1002.3 hPa NNE 4.2 km/h 6.4 km/h 85 % 0 mm
00:29 18.9 °C 16.4 °C 1001.9 hPa NNE 5.5 km/h 8 km/h 85 % 0 mm
00:34 19.1 °C 16.3 °C 1001.9 hPa NNE 6.4 km/h 11.1 km/h 84 % 0 mm
00:39 19.2 °C 16.4 °C 1001.9 hPa NNE 6.1 km/h 13 km/h 84 % 0 mm
00:44 19.2 °C 16.4 °C 1001.9 hPa North 8 km/h 9.7 km/h 84 % 0 mm
00:49 19.2 °C 16.4 °C 1001.9 hPa North 9.3 km/h 13 km/h 84 % 0 mm
00:54 19.3 °C 16.5 °C 1001.6 hPa NNE 7.7 km/h 16.7 km/h 84 % 0 mm
00:59 19.3 °C 16.4 °C 1001.6 hPa North 7.7 km/h 12.9 km/h 83 % 0 mm
01:04 19.4 °C 16.5 °C 1001.6 hPa North 7.1 km/h 13 km/h 83 % 0 mm
01:09 19.4 °C 16.4 °C 1001.6 hPa NNW 8.7 km/h 13 km/h 83 % 0 mm
01:14 19.4 °C 16.5 °C 1001.6 hPa North 10.9 km/h 18.5 km/h 83 % 0 mm
01:19 19.6 °C 16.6 °C 1001.2 hPa NNW 8.4 km/h 16.7 km/h 83 % 0 mm
01:24 19.6 °C 16.7 °C 1001.6 hPa North 6.6 km/h 9.3 km/h 83 % 0 mm
01:29 19.6 °C 16.4 °C 1001.2 hPa North 7.2 km/h 11.1 km/h 82 % 0 mm
01:34 19.5 °C 16.6 °C 1000.9 hPa NNW 8.5 km/h 14.8 km/h 83 % 0 mm
01:39 19.4 °C 16.5 °C 1000.9 hPa NNW 10 km/h 18.5 km/h 83 % 0 mm
01:44 19.4 °C 16.5 °C 1000.9 hPa North 10 km/h 13 km/h 83 % 0 mm
01:49 19.4 °C 16.5 °C 1000.9 hPa North 7.9 km/h 13 km/h 83 % 0 mm
01:54 19.5 °C 16.3 °C 1000.9 hPa NNW 9 km/h 14.5 km/h 82 % 0 mm
01:59 19.6 °C 16.4 °C 1000.9 hPa North 12.6 km/h 18.5 km/h 82 % 0 mm
02:04 19.7 °C 16.4 °C 1000.9 hPa North 13.8 km/h 20.4 km/h 81 % 0 mm
02:09 19.8 °C 16.2 °C 1000.9 hPa North 11.1 km/h 18.5 km/h 80 % 0 mm
02:14 19.9 °C 16.3 °C 1001.2 hPa NNW 8.4 km/h 16.7 km/h 80 % 0 mm
02:19 19.8 °C 16.3 °C 1000.9 hPa North 8.5 km/h 13 km/h 80 % 0 mm
02:24 19.7 °C 16.2 °C 1000.2 hPa North 11.1 km/h 13 km/h 80 % 0 mm
02:29 19.6 °C 16.2 °C 1000.6 hPa North 11.7 km/h 13 km/h 81 % 0 mm
02:34 19.4 °C 16.2 °C 1000.6 hPa NW 9.5 km/h 11.1 km/h 82 % 0 mm
02:39 19.2 °C 16.3 °C 1000.6 hPa NW 5.8 km/h 7.4 km/h 83 % 0 mm
02:44 19.1 °C 16.2 °C 1000.6 hPa NNW 9.3 km/h 13 km/h 83 % 0 mm
02:49 19.1 °C 16.2 °C 1000.2 hPa NNW 9.5 km/h 13 km/h 83 % 0 mm
02:54 19.2 °C 16.3 °C 1000.2 hPa North 8.9 km/h 18.5 km/h 83 % 0 mm
02:59 19.3 °C 16.3 °C 999.9 hPa NNW 11.3 km/h 13 km/h 83 % 0 mm
03:04 19.4 °C 16.2 °C 1000.2 hPa North 10.5 km/h 18.5 km/h 82 % 0 mm
03:09 19.4 °C 16.2 °C 1000.2 hPa NNW 12.9 km/h 16.7 km/h 82 % 0 mm
03:14 19.3 °C 16.2 °C 1000.2 hPa NW 11.1 km/h 16.7 km/h 82 % 0 mm
03:19 19.3 °C 16.1 °C 1000.2 hPa NNW 13.5 km/h 22.2 km/h 82 % 0 mm
03:25 19.2 °C 16.3 °C 1000.2 hPa North 13.2 km/h 13.2 km/h 83 % 0 mm
03:30 19.2 °C 16.2 °C 1000.6 hPa North 11.6 km/h 18.5 km/h 83 % 0 mm
03:35 19.2 °C 16.2 °C 1000.6 hPa NNW 13.4 km/h 25.9 km/h 83 % 0 mm
03:40 19.1 °C 16.2 °C 1000.6 hPa North 12.7 km/h 18.5 km/h 83 % 0 mm
03:45 19.1 °C 16.2 °C 1000.6 hPa North 11.6 km/h 18.5 km/h 83 % 0 mm
03:50 19.1 °C 16.1 °C 1000.2 hPa NNW 8.4 km/h 13 km/h 83 % 0 mm
03:55 19 °C 16.1 °C 999.9 hPa NNW 9 km/h 16.7 km/h 83 % 0 mm
04:00 18.9 °C 15.9 °C 999.9 hPa North 9.8 km/h 18.5 km/h 83 % 0 mm
04:05 18.8 °C 15.9 °C 999.9 hPa North 9.7 km/h 16.7 km/h 83 % 0 mm
04:10 18.8 °C 15.8 °C 999.9 hPa North 8.2 km/h 16.7 km/h 83 % 0 mm
04:15 18.7 °C 15.6 °C 999.5 hPa North 10.1 km/h 14.8 km/h 82 % 0 mm
04:20 18.7 °C 15.4 °C 999.9 hPa North 11.4 km/h 20.4 km/h 81 % 0 mm
04:25 18.7 °C 15.4 °C 999.2 hPa North 13.5 km/h 18.5 km/h 81 % 0 mm
04:30 18.7 °C 15.2 °C 999.5 hPa North 11.3 km/h 18.5 km/h 80 % 0 mm
04:35 18.7 °C 15.2 °C 999.9 hPa North 12.6 km/h 16.7 km/h 80 % 0 mm
04:40 18.6 °C 14.9 °C 999.2 hPa North 9.2 km/h 11.1 km/h 79 % 0 mm
04:45 18.6 °C 14.7 °C 999.5 hPa NW 10.6 km/h 14.8 km/h 78 % 0 mm
04:50 18.6 °C 14.7 °C 999.9 hPa NNW 11.4 km/h 16.7 km/h 78 % 0 mm
04:55 18.5 °C 14.4 °C 999.2 hPa North 12.4 km/h 20.4 km/h 77 % 0 mm
05:00 18.5 °C 14.4 °C 999.5 hPa North 11.9 km/h 20.4 km/h 77 % 0 mm
05:05 18.4 °C 14.3 °C 999.9 hPa NNE 9.8 km/h 14.8 km/h 77 % 0 mm
05:10 18.4 °C 14.3 °C 999.5 hPa NW 14 km/h 18.5 km/h 77 % 0 mm
05:15 18.3 °C 14.2 °C 999.9 hPa NNW 14.3 km/h 22.2 km/h 77 % 0 mm
05:20 18.3 °C 14.4 °C 999.9 hPa NNW 12.1 km/h 16.7 km/h 78 % 0 mm
05:25 18.2 °C 14.3 °C 999.9 hPa NNW 11.7 km/h 18.5 km/h 78 % 0 mm
05:30 18.2 °C 14.1 °C 999.9 hPa NW 12.2 km/h 18.5 km/h 77 % 0 mm
05:35 18.2 °C 14.1 °C 999.9 hPa WNW 12.2 km/h 16.7 km/h 77 % 0 mm
05:40 18.4 °C 13.7 °C 999.9 hPa WNW 11.1 km/h 24.1 km/h 74 % 0 mm
05:45 18.4 °C 13.5 °C 999.9 hPa North 14.6 km/h 18.5 km/h 73 % 0 mm
05:50 18.4 °C 13.5 °C 999.9 hPa NW 12.4 km/h 16.7 km/h 73 % 0 mm
05:55 18.5 °C 13.3 °C 1000.6 hPa NW 12.1 km/h 20.4 km/h 72 % 0 mm
06:00 18.4 °C 13.5 °C 1000.6 hPa WNW 7.7 km/h 13 km/h 73 % 0 mm
06:05 18.3 °C 13.4 °C 1000.6 hPa WNW 13.4 km/h 18.5 km/h 73 % 0 mm
06:10 18.3 °C 13.2 °C 1000.6 hPa WNW 9.7 km/h 16.7 km/h 72 % 0 mm
06:15 18.3 °C 12.9 °C 1000.6 hPa West 14.8 km/h 18.5 km/h 71 % 0 mm
06:20 18.4 °C 12.7 °C 1000.6 hPa West 15.3 km/h 18.5 km/h 69 % 0 mm
06:25 18.5 °C 12.7 °C 1000.6 hPa West 14.6 km/h 18.5 km/h 69 % 0 mm
06:30 18.5 °C 12.5 °C 1000.2 hPa West 9.2 km/h 18.5 km/h 68 % 0 mm
06:35 18.6 °C 12.1 °C 999.9 hPa WNW 2.9 km/h 5.6 km/h 66 % 0 mm
06:40 18.6 °C 11.4 °C 999.9 hPa NW 7.7 km/h 14.8 km/h 63 % 0 mm
06:45 18.7 °C 11.7 °C 1000.2 hPa WNW 5.5 km/h 9.3 km/h 64 % 0 mm
06:50 18.8 °C 11.3 °C 1000.6 hPa WNW 8.5 km/h 13 km/h 62 % 0 mm
06:55 18.8 °C 11.2 °C 1000.9 hPa WNW 7.6 km/h 9.3 km/h 61 % 0 mm
07:00 18.9 °C 10.7 °C 1000.9 hPa WNW 13.2 km/h 22.2 km/h 59 % 0 mm
07:05 18.8 °C 10.8 °C 1001.6 hPa West 26.1 km/h 31.5 km/h 60 % 0 mm
07:10 18.7 °C 11 °C 1001.6 hPa West 21.7 km/h 33.3 km/h 61 % 0 mm
07:15 18.3 °C 11.4 °C 1001.6 hPa WNW 20.1 km/h 27.8 km/h 64 % 0 mm
07:20 17.8 °C 11.6 °C 1001.9 hPa WNW 18.5 km/h 24.1 km/h 67 % 0 mm
07:25 17.5 °C 11.9 °C 1001.6 hPa North 14.8 km/h 18.5 km/h 70 % 0 mm
07:30 17.3 °C 12.2 °C 1001.2 hPa North 15 km/h 22.5 km/h 72 % 0 mm
07:35 17.1 °C 12.2 °C 1000.2 hPa NW 6.3 km/h 9.3 km/h 73 % 0 mm
07:40 16.9 °C 12.2 °C 999.9 hPa North 5.1 km/h 7.4 km/h 74 % 0 mm
07:45 16.8 °C 12.4 °C 1000.2 hPa NW 5 km/h 9.3 km/h 75 % 0 mm
07:50 16.7 °C 12.4 °C 1000.2 hPa North 5.1 km/h 5.6 km/h 76 % 0 mm
07:55 16.6 °C 12.3 °C 1000.6 hPa NW 4.3 km/h 7.4 km/h 76 % 0 mm
08:00 16.6 °C 12.5 °C 1000.6 hPa NW 3.2 km/h 5.6 km/h 77 % 0 mm
08:05 16.4 °C 12.6 °C 1000.6 hPa NW 6.9 km/h 11.1 km/h 78 % 0 mm
08:10 16.4 °C 12.6 °C 1000.9 hPa NW 4.7 km/h 9.7 km/h 78 % 0 mm
08:15 16.3 °C 12.6 °C 1000.9 hPa NNW 7.1 km/h 13 km/h 79 % 0 mm
08:20 16.3 °C 12.6 °C 1000.9 hPa North 6.3 km/h 13 km/h 79 % 0 mm
08:25 16.2 °C 12.8 °C 1000.9 hPa NNE 8.2 km/h 14.5 km/h 80 % 0 mm
08:30 16.1 °C 12.7 °C 1001.2 hPa North 10 km/h 14.8 km/h 80 % 0 mm
08:35 16.2 °C 12.7 °C 1001.2 hPa North 12.1 km/h 18.5 km/h 80 % 0 mm
08:40 16.2 °C 12.8 °C 1001.6 hPa North 6.8 km/h 14.8 km/h 80 % 0 mm
08:45 16.2 °C 12.8 °C 1001.2 hPa North 15.1 km/h 22.2 km/h 80 % 0 mm
08:50 16.4 °C 12.8 °C 1001.2 hPa North 12.6 km/h 18.5 km/h 79 % 0 mm
08:55 16.7 °C 13 °C 1001.2 hPa NNW 11.4 km/h 17.7 km/h 79 % 0 mm
09:00 16.8 °C 13 °C 1001.2 hPa NNW 13.4 km/h 22.2 km/h 78 % 0 mm
09:05 16.9 °C 12.7 °C 1001.2 hPa North 13.5 km/h 25.9 km/h 76 % 0 mm
09:10 17.1 °C 13 °C 1001.6 hPa NNW 9.2 km/h 14.8 km/h 77 % 0 mm
09:15 17.2 °C 12.9 °C 1001.6 hPa NW 10.3 km/h 20.9 km/h 76 % 0 mm
09:20 17.4 °C 12.9 °C 1001.9 hPa North 9.8 km/h 22.2 km/h 75 % 0 mm
09:25 17.6 °C 12.9 °C 1001.9 hPa North 12.9 km/h 18.5 km/h 74 % 0 mm
09:30 17.8 °C 12.5 °C 1001.9 hPa NW 16.4 km/h 24.1 km/h 71 % 0 mm
09:35 17.9 °C 12.4 °C 1001.9 hPa NW 12.7 km/h 25.9 km/h 70 % 0 mm
09:40 18 °C 12.2 °C 1001.9 hPa NNW 20.4 km/h 27.8 km/h 69 % 0 mm
09:46 18.2 °C 12.2 °C 1001.6 hPa North 21.9 km/h 29.6 km/h 68 % 0 mm
09:51 18.2 °C 11.6 °C 1001.6 hPa NW 25.6 km/h 40.7 km/h 65 % 0 mm
09:56 18.3 °C 12.1 °C 1001.2 hPa North 20.3 km/h 25.9 km/h 67 % 0 mm
10:01 18.4 °C 11.7 °C 1001.2 hPa WNW 23.2 km/h 25.9 km/h 65 % 0 mm
10:06 18.3 °C 11.9 °C 1001.6 hPa West 22.5 km/h 40.2 km/h 66 % 0 mm
10:11 18.4 °C 11.5 °C 1001.6 hPa WNW 22.9 km/h 38.9 km/h 64 % 0 mm
10:16 18.7 °C 11.7 °C 1001.6 hPa North 19.2 km/h 25.9 km/h 64 % 0 mm
10:21 18.8 °C 11.8 °C 1001.6 hPa NNW 12.4 km/h 17.7 km/h 64 % 0 mm
10:26 18.5 °C 11.8 °C 1001.6 hPa North 13.7 km/h 25.7 km/h 65 % 0 mm
10:31 18.4 °C 11.7 °C 1001.9 hPa WNW 24.3 km/h 31.5 km/h 65 % 0 mm
10:36 18.6 °C 11.8 °C 1001.6 hPa WNW 23.3 km/h 29 km/h 65 % 0 mm
10:41 18.8 °C 11.8 °C 1001.6 hPa West 21.9 km/h 32.2 km/h 64 % 0 mm
10:46 18.9 °C 11.7 °C 1001.6 hPa West 29.1 km/h 37 km/h 63 % 0 mm
10:51 18.8 °C 11.6 °C 1001.6 hPa WNW 23.5 km/h 40.7 km/h 63 % 0 mm
10:56 18.4 °C 11.5 °C 1001.9 hPa North 22.9 km/h 33.3 km/h 64 % 0 mm
11:01 18.3 °C 11.8 °C 1001.9 hPa NW 26.4 km/h 42.6 km/h 66 % 0 mm
11:06 18.7 °C 11.5 °C 1001.6 hPa WNW 28 km/h 42.6 km/h 63 % 0 mm
11:11 18.9 °C 11.2 °C 1001.6 hPa West 30.9 km/h 48.1 km/h 61 % 0 mm
11:16 19.1 °C 11.1 °C 1001.9 hPa North 31.2 km/h 42.6 km/h 60 % 0 mm
11:21 19 °C 11.1 °C 1001.6 hPa North 27.7 km/h 40.7 km/h 60 % 0 mm
11:26 19 °C 11.3 °C 1001.6 hPa WNW 24.1 km/h 33.3 km/h 61 % 0 mm
11:31 19.3 °C 10.6 °C 1001.9 hPa West 34 km/h 40.2 km/h 57 % 0 mm
11:36 19.3 °C 10.8 °C 1001.6 hPa North 15.9 km/h 31.5 km/h 58 % 0 mm
11:41 19.2 °C 9.9 °C 1001.9 hPa WNW 29 km/h 33.8 km/h 55 % 0 mm
11:46 19.2 °C 10.4 °C 1001.6 hPa WNW 20.4 km/h 24.1 km/h 57 % 0 mm
11:51 19.6 °C 10 °C 1001.6 hPa North 20.1 km/h 29.6 km/h 54 % 0 mm
11:56 18.9 °C 9.4 °C 1001.9 hPa West 19.5 km/h 31.5 km/h 54 % 0 mm
12:01 18.7 °C 9.4 °C 1001.6 hPa NW 26.9 km/h 33.3 km/h 55 % 0 mm
12:06 18.5 °C 9.6 °C 1001.6 hPa NW 17.4 km/h 31.5 km/h 56 % 0 mm
12:11 18.4 °C 9.2 °C 1001.9 hPa North 21.1 km/h 29.6 km/h 55 % 0 mm
12:16 18.2 °C 8.8 °C 1001.9 hPa WNW 25.6 km/h 29.6 km/h 54 % 0 mm
12:21 18.7 °C 8.3 °C 1001.9 hPa North 23 km/h 31.5 km/h 51 % 0 mm
12:26 19.1 °C 8.4 °C 1001.9 hPa West 29.5 km/h 33.3 km/h 50 % 0 mm
12:31 19.2 °C 8.8 °C 1001.9 hPa West 19.6 km/h 31.5 km/h 51 % 0 mm
12:36 19 °C 8.3 °C 1001.9 hPa WNW 21.4 km/h 31.5 km/h 50 % 0 mm
12:41 18.6 °C 8.6 °C 1001.6 hPa WNW 13.8 km/h 18.5 km/h 52 % 0 mm
12:46 18.5 °C 8.4 °C 1001.6 hPa WNW 15 km/h 20.4 km/h 52 % 0 mm
12:51 18.2 °C 8.8 °C 1001.6 hPa NW 18.2 km/h 22.5 km/h 54 % 0 mm
12:56 18.2 °C 8.4 °C 1001.2 hPa West 13 km/h 20.4 km/h 53 % 0 mm
13:01 18.2 °C 8.8 °C 1001.2 hPa North 12.7 km/h 18.5 km/h 54 % 0 mm
13:06 18.2 °C 8.5 °C 1001.2 hPa NW 18 km/h 22.2 km/h 53 % 0 mm
13:12 18.1 °C 8.4 °C 1000.9 hPa WNW 9.2 km/h 18.5 km/h 53 % 0 mm
13:17 18.4 °C 8.7 °C 1000.9 hPa West 23.3 km/h 25.9 km/h 53 % 0 mm
13:22 18.4 °C 8.1 °C 1000.9 hPa WNW 17.2 km/h 25.9 km/h 51 % 0 mm
13:27 18.3 °C 7.9 °C 1000.6 hPa WNW 10.8 km/h 31.5 km/h 51 % 0 mm
13:32 19.2 °C 8.5 °C 1000.6 hPa NNW 22.9 km/h 38.9 km/h 50 % 0 mm
13:37 19.1 °C 7.8 °C 1000.6 hPa WNW 10.8 km/h 25.9 km/h 48 % 0 mm
13:42 19.2 °C 7.9 °C 1000.6 hPa North 20.6 km/h 22.5 km/h 48 % 0 mm
13:47 19.4 °C 7.8 °C 1000.2 hPa NW 20.1 km/h 29.6 km/h 47 % 0 mm
13:52 19.5 °C 7.2 °C 1000.2 hPa North 19.8 km/h 31.5 km/h 45 % 0 mm
13:57 19.7 °C 7.8 °C 1000.2 hPa NW 18.8 km/h 25.9 km/h 46 % 0 mm
14:02 19.8 °C 7.2 °C 1000.2 hPa West 21.2 km/h 30.6 km/h 44 % 0 mm
14:07 19.7 °C 7.4 °C 1000.2 hPa North 21.4 km/h 29.6 km/h 45 % 0 mm
14:12 19.8 °C 7.5 °C 999.9 hPa North 19.3 km/h 31.5 km/h 45 % 0 mm
14:17 19.9 °C 6.9 °C 999.9 hPa WNW 20 km/h 37 km/h 43 % 0 mm
14:22 19.8 °C 6.8 °C 999.9 hPa West 23.3 km/h 35.4 km/h 43 % 0 mm
14:27 19.8 °C 6.2 °C 999.9 hPa North 29.9 km/h 41.8 km/h 41 % 0 mm
14:32 19.6 °C 6.3 °C 999.9 hPa NW 21.7 km/h 33.3 km/h 42 % 0 mm
14:37 19.6 °C 6.7 °C 999.5 hPa West 27.8 km/h 35.2 km/h 43 % 0 mm
14:42 20 °C 6.7 °C 999.9 hPa WNW 24.6 km/h 42.6 km/h 42 % 0 mm
14:47 19.8 °C 6.8 °C 999.5 hPa WNW 15.3 km/h 24.1 km/h 43 % 0 mm
14:52 19.9 °C 6.3 °C 999.5 hPa North 23.5 km/h 31.5 km/h 41 % 0 mm
14:57 19.4 °C 6.6 °C 999.5 hPa WNW 14.3 km/h 22.2 km/h 43 % 0 mm
15:02 19.4 °C 6.2 °C 999.9 hPa WNW 22.5 km/h 38.9 km/h 42 % 0 mm
15:07 19.8 °C 6.2 °C 999.5 hPa WNW 25.9 km/h 40.7 km/h 41 % 0 mm
15:12 20.2 °C 6.2 °C 999.5 hPa West 27.4 km/h 42.6 km/h 40 % 0 mm
15:17 20.2 °C 6.1 °C 999.5 hPa WNW 28.3 km/h 37 km/h 40 % 0 mm
15:22 20.5 °C 6.4 °C 999.5 hPa WNW 16.4 km/h 31.5 km/h 40 % 0 mm
15:27 20.3 °C 6.6 °C 999.5 hPa North 20.1 km/h 27.8 km/h 41 % 0 mm
15:32 20.4 °C 6.4 °C 999.5 hPa NW 19.2 km/h 31.5 km/h 40 % 0 mm
15:37 20.2 °C 6.5 °C 999.2 hPa North 23.2 km/h 42.6 km/h 41 % 0 mm
15:42 20.3 °C 6.6 °C 999.5 hPa West 19.5 km/h 33.8 km/h 41 % 0 mm
15:47 19.9 °C 6.2 °C 999.5 hPa West 16.6 km/h 27.4 km/h 41 % 0 mm
15:52 20 °C 6.3 °C 999.2 hPa NW 18 km/h 24.1 km/h 41 % 0 mm
15:57 20.1 °C 6.1 °C 999.2 hPa WNW 27.8 km/h 35.2 km/h 40 % 0 mm
16:02 19.9 °C 6.3 °C 999.2 hPa West 17.5 km/h 33.3 km/h 41 % 0 mm
16:07 20.2 °C 6.6 °C 999.2 hPa WNW 17.4 km/h 37 km/h 41 % 0 mm
16:12 20.1 °C 6.1 °C 999.2 hPa North 24.8 km/h 38.9 km/h 40 % 0 mm
16:17 20.2 °C 6.1 °C 998.9 hPa WNW 27.5 km/h 38.9 km/h 40 % 0 mm
16:22 19.9 °C 6.3 °C 998.9 hPa NW 24.1 km/h 31.5 km/h 41 % 0 mm
16:27 20.1 °C 6.4 °C 998.9 hPa WNW 21.7 km/h 25.9 km/h 41 % 0 mm
16:32 19.8 °C 6.2 °C 998.5 hPa North 20 km/h 24.1 km/h 41 % 0 mm
16:37 19.4 °C 6.2 °C 998.9 hPa WNW 24.5 km/h 32.2 km/h 42 % 0 mm
16:42 19.4 °C 6.5 °C 998.5 hPa WNW 22.2 km/h 37 km/h 43 % 0 mm
16:47 19.3 °C 6.4 °C 998.5 hPa NNW 25.6 km/h 29.6 km/h 43 % 0 mm
16:52 19.1 °C 6.2 °C 998.9 hPa WNW 19.2 km/h 35.2 km/h 43 % 0 mm
16:57 19 °C 6.4 °C 998.9 hPa North 20.3 km/h 29.6 km/h 44 % 0 mm
17:02 18.9 °C 6.4 °C 998.9 hPa WNW 23.8 km/h 31.5 km/h 44 % 0 mm
17:07 18.9 °C 6.4 °C 998.9 hPa North 37.5 km/h 51.8 km/h 44 % 0 mm
17:12 19.1 °C 6.8 °C 998.5 hPa North 13.7 km/h 33.3 km/h 45 % 0 mm
17:17 18.7 °C 6.8 °C 998.5 hPa North 27.5 km/h 35.4 km/h 46 % 0 mm
17:22 18.3 °C 7.4 °C 998.9 hPa NW 22.7 km/h 31.5 km/h 49 % 0 mm
17:27 18.1 °C 7.5 °C 998.9 hPa NW 25.3 km/h 37 km/h 50 % 0 mm
17:32 18 °C 7.7 °C 998.9 hPa North 19.5 km/h 24.1 km/h 51 % 0 mm
17:37 17.8 °C 8.3 °C 999.2 hPa NW 27.5 km/h 38.9 km/h 54 % 0 mm
17:42 17.3 °C 8.7 °C 999.2 hPa NW 14.5 km/h 32.2 km/h 57 % 0 mm
17:47 17.1 °C 9.2 °C 999.5 hPa NW 22.5 km/h 30.6 km/h 60 % 0 mm
17:52 16.6 °C 9.9 °C 999.5 hPa North 20.4 km/h 27.8 km/h 65 % 0 mm
17:57 16.2 °C 10.3 °C 999.5 hPa NW 24.8 km/h 33.3 km/h 68 % 0 mm
18:02 15.9 °C 10.6 °C 999.5 hPa NNW 21.1 km/h 31.5 km/h 71 % 0 mm
18:07 15.7 °C 10.6 °C 999.5 hPa North 19.3 km/h 27.8 km/h 72 % 0 mm
18:12 15.4 °C 10.4 °C 999.2 hPa NNW 15.4 km/h 27.8 km/h 72 % 0 mm
18:17 15.5 °C 10.4 °C 999.2 hPa North 18.7 km/h 31.5 km/h 72 % 0 mm
18:22 15.4 °C 10.2 °C 999.2 hPa NW 23.7 km/h 42.6 km/h 71 % 0 mm
18:27 15.3 °C 10.1 °C 999.2 hPa North 18 km/h 30.6 km/h 71 % 0 mm
18:32 15.3 °C 9.8 °C 999.2 hPa North 19.2 km/h 24.1 km/h 70 % 0 mm
18:37 15.2 °C 9.8 °C 999.5 hPa North 16.3 km/h 18.5 km/h 70 % 0 mm
18:42 15.2 °C 9.9 °C 999.5 hPa WNW 13.8 km/h 29.6 km/h 71 % 0 mm
18:47 14.7 °C 10.1 °C 999.9 hPa NW 29.8 km/h 38.9 km/h 74 % 0 mm
18:52 14.2 °C 10.2 °C 999.9 hPa WNW 29.9 km/h 35.2 km/h 77 % 0 mm
18:57 14.1 °C 9.9 °C 999.9 hPa WNW 16.3 km/h 24.1 km/h 76 % 0 mm
19:02 14.1 °C 9.9 °C 999.9 hPa WNW 26.1 km/h 26.1 km/h 76 % 0 mm
19:07 14.1 °C 9.9 °C 1000.2 hPa North 13 km/h 20.4 km/h 76 % 0 mm
19:12 14 °C 9.8 °C 999.9 hPa NW 16.7 km/h 16.7 km/h 76 % 0 mm
19:17 14.1 °C 9.9 °C 999.9 hPa WNW 11.9 km/h 18.5 km/h 76 % 0 mm
19:22 14.1 °C 9.9 °C 999.9 hPa NW 13.4 km/h 18.5 km/h 76 % 0 mm
19:27 14.2 °C 10 °C 1000.2 hPa North 17.5 km/h 22.5 km/h 76 % 0 mm
19:32 14 °C 10.2 °C 1000.2 hPa WNW 19 km/h 31.5 km/h 78 % 0 mm
19:46 13.2 °C 10.6 °C 1000.6 hPa West 25.9 km/h 25.9 km/h 84 % 0 mm
19:51 13.1 °C 10.7 °C 1000.6 hPa North 11.6 km/h 16.7 km/h 85 % 0 mm
19:56 13.1 °C 10.7 °C 1000.9 hPa West 9 km/h 16.7 km/h 85 % 0 mm
20:01 13 °C 10.6 °C 1000.9 hPa North 6.1 km/h 9.3 km/h 85 % 0 mm
20:06 12.9 °C 10.4 °C 1000.6 hPa SW 8.9 km/h 14.5 km/h 85 % 0 mm
20:11 12.7 °C 10.1 °C 1000.9 hPa WSW 9.2 km/h 20.4 km/h 84 % 0.51 mm
20:16 12.6 °C 9.9 °C 1000.9 hPa WSW 18.5 km/h 18.5 km/h 84 % 0.51 mm
20:21 12.3 °C 9.5 °C 1001.6 hPa West 25.4 km/h 33.3 km/h 83 % 0.51 mm
20:26 11.6 °C 8.8 °C 1001.6 hPa West 23.5 km/h 33.3 km/h 83 % 0.51 mm
20:31 11 °C 8.7 °C 1001.6 hPa WSW 20.6 km/h 29.6 km/h 86 % 0.76 mm
20:36 10.7 °C 8.4 °C 1001.9 hPa WSW 34 km/h 38.9 km/h 86 % 0.76 mm
20:41 10.4 °C 7.8 °C 1002.3 hPa SW 29.3 km/h 35.2 km/h 84 % 1.02 mm
20:46 10.4 °C 7.8 °C 1002.6 hPa WSW 33.5 km/h 46.3 km/h 84 % 1.02 mm
20:51 10.4 °C 7.4 °C 1002.6 hPa WSW 27.4 km/h 33.3 km/h 82 % 1.02 mm
20:56 10.3 °C 7.3 °C 1002.6 hPa West 26.1 km/h 33.3 km/h 82 % 1.27 mm
21:01 10.3 °C 7.3 °C 1002.9 hPa North 16.6 km/h 29.6 km/h 82 % 1.27 mm
21:06 10.2 °C 7.1 °C 1002.6 hPa WSW 15.8 km/h 29.6 km/h 81 % 1.27 mm
21:07 10.3 °C 7.2 °C 1002.6 hPa West 13.2 km/h 25.9 km/h 81 % 1.27 mm
21:12 10.3 °C 7.1 °C 1002.6 hPa North 12.9 km/h 20.4 km/h 80 % 0.76 mm
21:17 10.4 °C 6.8 °C 1002.3 hPa West 16.1 km/h 18.5 km/h 78 % 0.76 mm
21:22 10.5 °C 6.6 °C 1002.6 hPa North 14.5 km/h 27.8 km/h 77 % 0.76 mm
21:27 10.6 °C 6.3 °C 1002.6 hPa WSW 8.5 km/h 18.5 km/h 75 % 0.76 mm
21:32 10.6 °C 6.3 °C 1002.6 hPa West 11.9 km/h 24.1 km/h 75 % 0.51 mm
21:37 10.7 °C 6.3 °C 1002.6 hPa West 9.2 km/h 14.8 km/h 74 % 0.51 mm
21:42 10.7 °C 6.3 °C 1002.9 hPa West 10.6 km/h 13 km/h 74 % 0.25 mm
21:47 10.7 °C 6.3 °C 1002.9 hPa North 13.5 km/h 18.5 km/h 74 % 0.25 mm
21:52 10.8 °C 6.4 °C 1002.9 hPa SW 12.9 km/h 19.3 km/h 74 % 0 mm
21:57 10.7 °C 6.3 °C 1003.3 hPa SW 26.4 km/h 38.9 km/h 74 % 0 mm
22:02 10.2 °C 5.9 °C 1003.3 hPa SW 19.2 km/h 27.8 km/h 75 % 0 mm
22:07 9.6 °C 6.3 °C 1003.6 hPa WSW 17.7 km/h 25.9 km/h 80 % 0 mm
22:12 9.4 °C 6.3 °C 1003.6 hPa WSW 10.9 km/h 18.5 km/h 81 % 0 mm
22:17 9.4 °C 5.9 °C 1003.9 hPa WSW 16.9 km/h 22.2 km/h 79 % 0 mm
22:22 9.6 °C 5.6 °C 1003.6 hPa WSW 8.9 km/h 20.4 km/h 76 % 0 mm
22:27 9.6 °C 5.4 °C 1003.9 hPa WNW 15.8 km/h 24.1 km/h 75 % 0 mm
22:32 9.6 °C 5.2 °C 1003.6 hPa North 9.3 km/h 14.8 km/h 74 % 0 mm
22:37 9.6 °C 5.2 °C 1003.6 hPa West 10.5 km/h 16.7 km/h 74 % 0 mm
22:42 9.6 °C 5.2 °C 1003.6 hPa WNW 9.2 km/h 16.7 km/h 74 % 0 mm
22:47 9.6 °C 4.9 °C 1003.9 hPa West 7.9 km/h 11.1 km/h 73 % 0 mm
22:52 9.4 °C 4.8 °C 1003.6 hPa West 6 km/h 7.4 km/h 73 % 0 mm
22:57 9.5 °C 4.7 °C 1003.9 hPa West 12.2 km/h 13 km/h 72 % 0 mm
23:02 9.5 °C 4.7 °C 1003.9 hPa West 7.1 km/h 11.1 km/h 72 % 0 mm
23:07 9.6 °C 4.6 °C 1003.9 hPa West 4.8 km/h 11.1 km/h 71 % 0 mm
23:12 9.6 °C 4.6 °C 1003.9 hPa West 11.7 km/h 14.8 km/h 71 % 0 mm
23:17 9.8 °C 4.3 °C 1003.9 hPa West 17.4 km/h 19.3 km/h 69 % 0.25 mm
23:22 9.8 °C 4.4 °C 1003.9 hPa North 13.7 km/h 13.7 km/h 69 % 0.25 mm
23:27 9.8 °C 4.2 °C 1004.3 hPa West 18.2 km/h 24.1 km/h 68 % 0.25 mm
23:32 9.8 °C 4.2 °C 1004.3 hPa North 9.7 km/h 13 km/h 68 % 0.25 mm
23:37 9.8 °C 4.2 °C 1004.3 hPa North 15.6 km/h 20.4 km/h 68 % 0.25 mm
23:42 9.7 °C 4.1 °C 1004.3 hPa West 11.7 km/h 16.7 km/h 68 % 0.25 mm
23:47 9.7 °C 4.3 °C 1004.3 hPa WSW 9.8 km/h 24.1 km/h 69 % 0.25 mm
23:49 9.7 °C 4.1 °C 1004.3 hPa North 15.8 km/h 22.2 km/h 68 % 0.25 mm
23:55 9.7 °C 4.1 °C 1004.6 hPa WSW 15.1 km/h 18.5 km/h 68 % 0.25 mm
23:59 9.7 °C 4.1 °C 1004.6 hPa SW 10.3 km/h 13 km/h 68 % 0.25 mm
Ararat Weather
Compliments of Weather Underground - 2.25 mb
Click here to send mail.


ABOUT

Live weather data from Ararat, Victoria, Australia, 3377
Data uploaded from Cumulus every 5 minutes to Weather Underground.
This site then downloads the raw data for formatting and display.
Metric and imperial data can be displayed. Graphs and historical data available.
Includes Sun and Moon times and rain image live from BOM.

Check out Ararat Weather on Facebook, Twitter and Google +

Help support ongoing costs by checking out the ads





Follow @AraratWeather